Finnhawk — OJNL — position and weather

sailwx.info

Track history (hours):
 
Tides and Currents Weather Stations Pressure Air Temp Water Temp Dewpoint Dewpoint Depression Visibility Wind Speed Wind Dir Waves Ship Positions

Finnhawk

Last reported at 2014-Nov-28 10:33 UTC. Time now 2014-Nov-28 11:10 UTC.
Position N 52°24' E 004°50'.

Length 163 m; draft 5.6 m.

Type: Ship. MMSI: 230007000.

Date/timePositionNaut miles runAvg speedWind from/ knotsBaromVisibWave heightAir tempDewpointWater temp
2014-Nov-28 10:33N 52°24' E 004°50'0 0.0
2014-Nov-28 09:33N 52°24' E 004°50'0 0.2
2014-Nov-28 08:34N 52°24' E 004°49'7 6.9
2014-Nov-28 07:33N 52°28' E 004°40'3 3.3
2014-Nov-28 06:34N 52°28' E 004°34'1515.0
2014-Nov-28 05:33N 52°29' E 004°10'8318.5
2014-Nov-28 01:04N 51°46' E 002°14'917.3
2014-Nov-28 00:33N 51°41' E 002°02'1717.4
2014-Nov-27 23:34N 51°31' E 001°39'1212.2
2014-Nov-27 22:34N 51°29' E 001°20'1515.2
2014-Nov-27 21:33N 51°29' E 000°56'1817.7
2014-Nov-27 20:33N 51°29' E 000°27'4 4.4
2014-Nov-27 19:34N 51°27' E 000°21'1 0.6
2014-Nov-27 18:33N 51°27' E 000°21'0 0.0
2014-Nov-27 17:34N 51°27' E 000°21'0 0.0
2014-Nov-27 16:33N 51°27' E 000°21'0 0.0
2014-Nov-27 15:33N 51°27' E 000°21'0 0.0
2014-Nov-27 14:33N 51°27' E 000°21'0 0.0
2014-Nov-27 13:33N 51°27' E 000°21'0 0.0
2014-Nov-27 12:33N 51°27' E 000°21'0 0.0
2014-Nov-27 11:33N 51°27' E 000°21'0 0.0
2014-Nov-27 10:33N 51°27' E 000°21'0 0.0
2014-Nov-27 09:33N 51°27' E 000°21'0 0.0
2014-Nov-27 08:33N 51°27' E 000°21'1 0.6
2014-Nov-27 07:33N 51°27' E 000°20'1 1.4
2014-Nov-27 06:33N 51°27' E 000°23'8 8.2
2014-Nov-27 05:33N 51°30' E 000°35'10 9.6
2014-Nov-27 04:33N 51°30' E 000°50'1111.3
2014-Nov-27 03:33N 51°29' E 001°09'1413.8
2014-Nov-27 02:33N 51°27' E 001°30'1414.0
2014-Nov-27 01:34N 51°38' E 001°45'1717.1
2014-Nov-27 00:34N 51°55' E 001°44'1817.9
2014-Nov-26 23:34N 52°12' E 001°51'1817.7
2014-Nov-26 22:33N 52°30' E 001°58'1716.9
2014-Nov-26 21:33N 52°47' E 001°58'1817.8
2014-Nov-26 20:33N 52°55' E 001°32'4019.7
2014-Nov-26 18:31N 53°19' E 000°38'1818.5
2014-Nov-26 17:33N 53°32' E 000°18'1313.2
2014-Nov-26 16:33N 53°36' W 000°03'5 5.2
2014-Nov-26 15:33N 53°38' W 000°11'0 0.3
2014-Nov-26 14:28N 53°38' W 000°12'0 0.0
2014-Nov-26 13:28N 53°38' W 000°12'0 0.0
2014-Nov-26 12:31N 53°38' W 000°12'0 0.0
2014-Nov-26 11:28N 53°38' W 000°12'0 0.0
2014-Nov-26 10:31N 53°38' W 000°12'0 0.0
2014-Nov-26 09:28N 53°38' W 000°12'0 0.0
2014-Nov-26 08:28N 53°38' W 000°12'0 0.4
2014-Nov-26 07:34N 53°38' W 000°12'1 0.8
2014-Nov-26 06:33N 53°38' W 000°11'1313.4
2014-Nov-26 05:33N 53°33' E 000°10'9 8.7
2014-Nov-26 04:33N 53°39' E 000°22'41918.1
2014-Nov-25 05:23N 57°47' E 010°20'1417.1
2014-Nov-25 04:33N 57°48' E 010°47'1817.8
2014-Nov-25 03:33N 57°36' E 011°11'1818.0
2014-Nov-25 02:33N 57°21' E 011°31'7117.6
2014-Nov-24 22:30N 56°15' E 012°21'1516.5
2014-Nov-24 21:34N 56°03' E 012°39'1615.8
2014-Nov-24 20:34N 55°48' E 012°43'1212.3
2014-Nov-24 19:34N 55°36' E 012°42'1211.8
2014-Nov-24 18:33N 55°24' E 012°41'1313.1
2014-Nov-24 17:33N 55°14' E 012°57'14115.6
2014-Nov-24 08:30N 54°52' E 016°60'2118.0
2014-Nov-24 07:22N 54°57' E 017°35'1518.2
2014-Nov-24 06:33N 54°60' E 017°60'1818.2
2014-Nov-24 05:33N 55°04' E 018°31'1817.5
2014-Nov-24 04:34N 55°07' E 019°01'1716.5
2014-Nov-24 03:31N 55°14' E 019°28'29016.8
2014-Nov-23 10:19N 59°37' E 023°13'1418.9
2014-Nov-23 09:33N 59°42' E 023°40'1918.6
2014-Nov-23 08:32N 59°48' E 024°16'3517.5
2014-Nov-23 06:33N 60°08' E 025°12'5 0.6
2014-Nov-22 21:21N 60°13' E 025°12'7 8.5
2014-Nov-22 20:31N 60°06' E 025°11'3516.7
2014-Nov-22 18:26N 60°00' E 026°20'11316.4
2014-Nov-22 11:30N 59°54' E 030°06'4 3.7
2014-Nov-22 10:31N 59°54' E 030°13'0 0.0
2014-Nov-22 09:31N 59°54' E 030°13'0 0.0
2014-Nov-22 08:31N 59°54' E 030°13'85 3.2
2014-Nov-21 06:25N 60°04' E 027°25'1618.6
2014-Nov-21 05:34N 59°59' E 026°56'1716.5
2014-Nov-21 04:34N 60°02' E 026°24'1817.6
2014-Nov-21 03:34N 60°19' E 026°35'1514.6
2014-Nov-21 02:34N 60°28' E 026°58'1 1.1
2014-Nov-21 01:33N 60°29' E 026°57'0 0.0
2014-Nov-21 00:33N 60°29' E 026°57'0 0.0
2014-Nov-20 23:33N 60°29' E 026°57'0 0.0
2014-Nov-20 22:33N 60°29' E 026°57'0 0.0
2014-Nov-20 21:33N 60°29' E 026°57'0 0.0
2014-Nov-20 20:33N 60°29' E 026°57'0 0.0
2014-Nov-20 19:33N 60°29' E 026°57'0 0.0
2014-Nov-20 18:33N 60°29' E 026°57'0 0.0
2014-Nov-20 17:33N 60°29' E 026°57'0 0.0
2014-Nov-20 16:33N 60°29' E 026°57'0 0.0
2014-Nov-20 15:33N 60°29' E 026°57'0 0.0
2014-Nov-20 14:33N 60°29' E 026°57'0 0.0
2014-Nov-20 13:33N 60°29' E 026°57'2 1.7
2014-Nov-20 12:33N 60°28' E 026°58'1616.3
2014-Nov-20 11:33N 60°18' E 026°32'2119.1
2014-Nov-20 10:27N 60°03' E 026°02'1718.6
2014-Nov-20 09:33N 59°58' E 025°30'1515.3
2014-Nov-20 08:34N 60°11' E 025°13'2 0.6
2014-Nov-20 04:33N 60°13' E 025°12'2612.9
2014-Nov-20 02:32N 59°48' E 024°54'1615.3
2014-Nov-20 01:31N 59°44' E 024°24'1515.4
2014-Nov-20 00:34N 59°39' E 023°56'1615.4
2014-Nov-19 23:33N 59°34' E 023°27'21715.4
2014-Nov-19 09:29N 57°28' E 017°49'1616.2
2014-Nov-19 08:30N 57°13' E 017°38'8415.8
2014-Nov-19 03:10N 55°58' E 016°29'4216.0
2014-Nov-19 00:34N 55°38' E 015°23'1616.1
2014-Nov-18 23:34N 55°31' E 014°58'1616.0
2014-Nov-18 22:34N 55°21' E 014°35'1616.0
2014-Nov-18 21:33N 55°10' E 014°15'2316.7
2014-Nov-18 20:12N 55°12' E 013°36'1016.4
2014-Nov-18 19:33N 55°13' E 013°18'1717.1
2014-Nov-18 18:33N 55°16' E 012°48'1414.0
2014-Nov-18 17:33N 55°29' E 012°41'1313.3
2014-Nov-18 16:34N 55°42' E 012°41'1716.7
2014-Nov-18 15:33N 55°59' E 012°41'1515.2
2014-Nov-18 14:33N 56°11' E 012°24'1615.8
2014-Nov-18 13:33N 56°24' E 012°06'3516.4
2014-Nov-18 11:24N 56°57' E 011°43'  
Track history (hours):
 
Tides and Currents Weather Stations Pressure Air Temp Water Temp Dewpoint Dewpoint Depression Visibility Wind Speed Wind Dir Waves Ship Positions

Finnhawk

Last reported at 2014-Nov-28 10:33 UTC. Time now 2014-Nov-28 11:10 UTC.
Position N 52°24' E 004°50'.

Length 163 m; draft 5.6 m.

Type: Ship. MMSI: 230007000.

Date/timePositionNaut miles runAvg speedWind from/ knotsBaromVisibWave heightAir tempDewpointWater temp
2014-Nov-28 10:33N 52°24' E 004°50'0 0.0
2014-Nov-28 09:33N 52°24' E 004°50'0 0.2
2014-Nov-28 08:34N 52°24' E 004°49'7 6.9
2014-Nov-28 07:33N 52°28' E 004°40'3 3.3
2014-Nov-28 06:34N 52°28' E 004°34'1515.0
2014-Nov-28 05:33N 52°29' E 004°10'8318.5
2014-Nov-28 01:04N 51°46' E 002°14'917.3
2014-Nov-28 00:33N 51°41' E 002°02'1717.4
2014-Nov-27 23:34N 51°31' E 001°39'1212.2
2014-Nov-27 22:34N 51°29' E 001°20'1515.2
2014-Nov-27 21:33N 51°29' E 000°56'1817.7
2014-Nov-27 20:33N 51°29' E 000°27'4 4.4
2014-Nov-27 19:34N 51°27' E 000°21'1 0.6
2014-Nov-27 18:33N 51°27' E 000°21'0 0.0
2014-Nov-27 17:34N 51°27' E 000°21'0 0.0
2014-Nov-27 16:33N 51°27' E 000°21'0 0.0
2014-Nov-27 15:33N 51°27' E 000°21'0 0.0
2014-Nov-27 14:33N 51°27' E 000°21'0 0.0
2014-Nov-27 13:33N 51°27' E 000°21'0 0.0
2014-Nov-27 12:33N 51°27' E 000°21'0 0.0
2014-Nov-27 11:33N 51°27' E 000°21'0 0.0
2014-Nov-27 10:33N 51°27' E 000°21'0 0.0
2014-Nov-27 09:33N 51°27' E 000°21'0 0.0
2014-Nov-27 08:33N 51°27' E 000°21'1 0.6
2014-Nov-27 07:33N 51°27' E 000°20'1 1.4
2014-Nov-27 06:33N 51°27' E 000°23'8 8.2
2014-Nov-27 05:33N 51°30' E 000°35'10 9.6
2014-Nov-27 04:33N 51°30' E 000°50'1111.3
2014-Nov-27 03:33N 51°29' E 001°09'1413.8
2014-Nov-27 02:33N 51°27' E 001°30'1414.0
2014-Nov-27 01:34N 51°38' E 001°45'1717.1
2014-Nov-27 00:34N 51°55' E 001°44'1817.9
2014-Nov-26 23:34N 52°12' E 001°51'1817.7
2014-Nov-26 22:33N 52°30' E 001°58'1716.9
2014-Nov-26 21:33N 52°47' E 001°58'1817.8
2014-Nov-26 20:33N 52°55' E 001°32'4019.7
2014-Nov-26 18:31N 53°19' E 000°38'1818.5
2014-Nov-26 17:33N 53°32' E 000°18'1313.2
2014-Nov-26 16:33N 53°36' W 000°03'5 5.2
2014-Nov-26 15:33N 53°38' W 000°11'0 0.3
2014-Nov-26 14:28N 53°38' W 000°12'0 0.0
2014-Nov-26 13:28N 53°38' W 000°12'0 0.0
2014-Nov-26 12:31N 53°38' W 000°12'0 0.0
2014-Nov-26 11:28N 53°38' W 000°12'0 0.0
2014-Nov-26 10:31N 53°38' W 000°12'0 0.0
2014-Nov-26 09:28N 53°38' W 000°12'0 0.0
2014-Nov-26 08:28N 53°38' W 000°12'0 0.4
2014-Nov-26 07:34N 53°38' W 000°12'1 0.8
2014-Nov-26 06:33N 53°38' W 000°11'1313.4
2014-Nov-26 05:33N 53°33' E 000°10'9 8.7
2014-Nov-26 04:33N 53°39' E 000°22'41918.1
2014-Nov-25 05:23N 57°47' E 010°20'1417.1
2014-Nov-25 04:33N 57°48' E 010°47'1817.8
2014-Nov-25 03:33N 57°36' E 011°11'1818.0
2014-Nov-25 02:33N 57°21' E 011°31'7117.6
2014-Nov-24 22:30N 56°15' E 012°21'1516.5
2014-Nov-24 21:34N 56°03' E 012°39'1615.8
2014-Nov-24 20:34N 55°48' E 012°43'1212.3
2014-Nov-24 19:34N 55°36' E 012°42'1211.8
2014-Nov-24 18:33N 55°24' E 012°41'1313.1
2014-Nov-24 17:33N 55°14' E 012°57'14115.6
2014-Nov-24 08:30N 54°52' E 016°60'2118.0
2014-Nov-24 07:22N 54°57' E 017°35'1518.2
2014-Nov-24 06:33N 54°60' E 017°60'1818.2
2014-Nov-24 05:33N 55°04' E 018°31'1817.5
2014-Nov-24 04:34N 55°07' E 019°01'1716.5
2014-Nov-24 03:31N 55°14' E 019°28'29016.8
2014-Nov-23 10:19N 59°37' E 023°13'1418.9
2014-Nov-23 09:33N 59°42' E 023°40'1918.6
2014-Nov-23 08:32N 59°48' E 024°16'3517.5
2014-Nov-23 06:33N 60°08' E 025°12'5 0.6
2014-Nov-22 21:21N 60°13' E 025°12'7 8.5
2014-Nov-22 20:31N 60°06' E 025°11'3516.7
2014-Nov-22 18:26N 60°00' E 026°20'11316.4
2014-Nov-22 11:30N 59°54' E 030°06'4 3.7
2014-Nov-22 10:31N 59°54' E 030°13'0 0.0
2014-Nov-22 09:31N 59°54' E 030°13'0 0.0
2014-Nov-22 08:31N 59°54' E 030°13'85 3.2
2014-Nov-21 06:25N 60°04' E 027°25'1618.6
2014-Nov-21 05:34N 59°59' E 026°56'1716.5
2014-Nov-21 04:34N 60°02' E 026°24'1817.6
2014-Nov-21 03:34N 60°19' E 026°35'1514.6
2014-Nov-21 02:34N 60°28' E 026°58'1 1.1
2014-Nov-21 01:33N 60°29' E 026°57'0 0.0
2014-Nov-21 00:33N 60°29' E 026°57'0 0.0
2014-Nov-20 23:33N 60°29' E 026°57'0 0.0
2014-Nov-20 22:33N 60°29' E 026°57'0 0.0
2014-Nov-20 21:33N 60°29' E 026°57'0 0.0
2014-Nov-20 20:33N 60°29' E 026°57'0 0.0
2014-Nov-20 19:33N 60°29' E 026°57'0 0.0
2014-Nov-20 18:33N 60°29' E 026°57'0 0.0
2014-Nov-20 17:33N 60°29' E 026°57'0 0.0
2014-Nov-20 16:33N 60°29' E 026°57'0 0.0
2014-Nov-20 15:33N 60°29' E 026°57'0 0.0
2014-Nov-20 14:33N 60°29' E 026°57'0 0.0
2014-Nov-20 13:33N 60°29' E 026°57'2 1.7
2014-Nov-20 12:33N 60°28' E 026°58'1616.3
2014-Nov-20 11:33N 60°18' E 026°32'2119.1
2014-Nov-20 10:27N 60°03' E 026°02'1718.6
2014-Nov-20 09:33N 59°58' E 025°30'1515.3
2014-Nov-20 08:34N 60°11' E 025°13'2 0.6
2014-Nov-20 04:33N 60°13' E 025°12'2612.9
2014-Nov-20 02:32N 59°48' E 024°54'1615.3
2014-Nov-20 01:31N 59°44' E 024°24'1515.4
2014-Nov-20 00:34N 59°39' E 023°56'1615.4
2014-Nov-19 23:33N 59°34' E 023°27'21715.4
2014-Nov-19 09:29N 57°28' E 017°49'1616.2
2014-Nov-19 08:30N 57°13' E 017°38'8415.8
2014-Nov-19 03:10N 55°58' E 016°29'4216.0
2014-Nov-19 00:34N 55°38' E 015°23'1616.1
2014-Nov-18 23:34N 55°31' E 014°58'1616.0
2014-Nov-18 22:34N 55°21' E 014°35'1616.0
2014-Nov-18 21:33N 55°10' E 014°15'2316.7
2014-Nov-18 20:12N 55°12' E 013°36'1016.4
2014-Nov-18 19:33N 55°13' E 013°18'1717.1
2014-Nov-18 18:33N 55°16' E 012°48'1414.0
2014-Nov-18 17:33N 55°29' E 012°41'1313.3
2014-Nov-18 16:34N 55°42' E 012°41'1716.7
2014-Nov-18 15:33N 55°59' E 012°41'1515.2
2014-Nov-18 14:33N 56°11' E 012°24'1615.8
2014-Nov-18 13:33N 56°24' E 012°06'3516.4
2014-Nov-18 11:24N 56°57' E 011°43'  

Dump ship's entire track history